createdAt,value
2023-03-13T00:03:34.194Z,98772.81
2023-03-13T00:08:36.974Z,98764.28
2023-03-13T00:13:39.974Z,98765.06
2023-03-13T00:18:47.831Z,98749.41
2023-03-13T00:23:50.837Z,98742.97
2023-03-13T00:28:54.082Z,98730.19
2023-03-13T00:33:59.627Z,98730.97
2023-03-13T00:39:02.446Z,98736.16
2023-03-13T00:44:05.273Z,98718.53
2023-03-13T00:49:09.747Z,98711.13
2023-03-13T00:54:12.452Z,98701.41
2023-03-13T00:59:15.238Z,98693.69
2023-03-13T01:04:20.070Z,98689.34
2023-03-13T01:09:22.815Z,98670.91
2023-03-13T01:14:25.692Z,98650.69
2023-03-13T01:19:31.069Z,98627.19
2023-03-13T01:24:33.954Z,98607.16
2023-03-13T01:29:36.662Z,98588.88
2023-03-13T01:34:41.907Z,98555.53
2023-03-13T01:39:44.620Z,98528.78
2023-03-13T01:44:51.840Z,98490.75
2023-03-13T01:49:56.003Z,98453.19
2023-03-13T01:55:27.881Z,98405.75
2023-03-13T02:00:34.139Z,98348.13
2023-03-13T02:05:39.156Z,98299.84
2023-03-13T02:10:50.276Z,98256.19
2023-03-13T02:15:53.267Z,98229.09
2023-03-13T02:21:02.472Z,98153.84
2023-03-13T02:26:07.423Z,98098.81
2023-03-13T02:31:11.874Z,98071.66
2023-03-13T02:36:16.248Z,98012.19
2023-03-13T02:41:21.620Z,97964.06
2023-03-13T02:46:24.402Z,97926.50
2023-03-13T02:51:33.008Z,97895.09
2023-03-13T02:56:39.747Z,97853.09
2023-03-13T03:01:44.346Z,97818.09
2023-03-13T03:06:47.124Z,97773.47
2023-03-13T03:11:51.466Z,97713.13
2023-03-13T03:16:54.690Z,97667.63
2023-03-13T03:21:57.450Z,97633.50
2023-03-13T03:27:01.507Z,97605.50
2023-03-13T03:32:11.613Z,97553.00
2023-03-13T03:37:14.350Z,97534.63
2023-03-13T03:42:18.487Z,97490.88
2023-03-13T03:47:21.271Z,97447.97
2023-03-13T03:52:24.179Z,97413.84
2023-03-13T03:57:28.308Z,97379.69
2023-03-13T04:02:31.181Z,97356.03
2023-03-13T04:07:34.164Z,97307.91
2023-03-13T04:12:38.677Z,97251.00
2023-03-13T04:17:41.382Z,97230.88
2023-03-13T04:22:45.465Z,97192.31
2023-03-13T04:27:51.222Z,97163.44
2023-03-13T04:32:57.173Z,97113.50
2023-03-13T04:38:21.032Z,97086.25
2023-03-13T04:43:47.218Z,97066.91
2023-03-13T04:49:09.037Z,97036.25
2023-03-13T04:54:14.908Z,96991.50
2023-03-13T04:59:48.082Z,96973.94
2023-03-13T05:05:17.508Z,96909.84
2023-03-13T05:10:49.253Z,96885.38
2023-03-13T05:16:12.015Z,96845.06
2023-03-13T05:21:39.975Z,96808.06
2023-03-13T05:27:09.770Z,96765.00
2023-03-13T05:32:34.156Z,96728.94
2023-03-13T05:37:55.572Z,96703.47
2023-03-13T05:43:08.047Z,96670.13
2023-03-13T05:48:47.465Z,96617.34
2023-03-13T05:54:15.696Z,96571.94
2023-03-13T05:59:53.647Z,96514.81
2023-03-13T06:05:17.596Z,96461.38
2023-03-13T06:10:21.511Z,96388.94
2023-03-13T06:15:24.736Z,96360.09
2023-03-13T06:20:34.431Z,96344.25
2023-03-13T06:25:37.106Z,96317.16
2023-03-13T06:30:39.821Z,96256.19
2023-03-13T06:35:55.733Z,96237.75
2023-03-13T06:40:58.928Z,96421.66
2023-03-13T06:46:05.005Z,96405.13
2023-03-13T06:51:12.649Z,96376.00
2023-03-13T06:56:15.336Z,96354.13
2023-03-13T07:01:18.887Z,96319.56
2023-03-13T07:06:23.000Z,96317.03
2023-03-13T07:11:26.130Z,96308.25
2023-03-13T07:16:29.030Z,96300.28
2023-03-13T07:21:33.121Z,96308.22
2023-03-13T07:26:35.997Z,96308.91
2023-03-13T07:31:39.280Z,96305.03
2023-03-13T07:36:43.748Z,96305.16
2023-03-13T07:41:46.714Z,96322.19
2023-03-13T07:46:52.518Z,96332.81
2023-03-13T07:51:57.597Z,96358.63
2023-03-13T07:57:00.292Z,96381.03
2023-03-13T08:02:03.356Z,96415.88
2023-03-13T08:07:10.734Z,96454.94
2023-03-13T08:12:13.433Z,96506.09
2023-03-13T08:17:16.137Z,96557.38
2023-03-13T08:22:20.185Z,96606.44
2023-03-13T08:27:22.875Z,96647.91
2023-03-13T08:32:25.598Z,96733.50
2023-03-13T08:37:29.663Z,96808.09
2023-03-13T08:42:32.348Z,96886.16
2023-03-13T08:47:35.116Z,96977.88
2023-03-13T08:52:39.150Z,97049.09
2023-03-13T08:57:41.830Z,97109.63
2023-03-13T09:02:44.558Z,97213.72
2023-03-13T09:07:48.674Z,97272.28
2023-03-13T09:12:51.369Z,97362.03
2023-03-13T09:17:54.102Z,97448.34
2023-03-13T09:22:58.231Z,97495.16
2023-03-13T09:28:00.960Z,97550.38
2023-03-13T09:33:03.882Z,97732.63
2023-03-13T09:38:08.518Z,97679.03
2023-03-13T09:43:21.875Z,97777.59
2023-03-13T09:48:31.286Z,97891.03
2023-03-13T09:53:41.041Z,97929.69
2023-03-13T09:58:48.409Z,97992.91
2023-03-13T10:03:58.806Z,98031.53
2023-03-13T10:09:02.950Z,98080.91
2023-03-13T10:14:08.442Z,98093.19
2023-03-13T10:19:13.999Z,98109.94
2023-03-13T10:24:23.715Z,98129.16
2023-03-13T10:29:28.254Z,98139.94
2023-03-13T10:34:46.880Z,98138.31
2023-03-13T10:39:51.086Z,98134.69
2023-03-13T10:44:58.118Z,98139.03
2023-03-13T10:50:00.951Z,98160.06
2023-03-13T10:55:07.824Z,98138.06
2023-03-13T11:00:29.525Z,98149.22
2023-03-13T11:05:35.139Z,98151.91
2023-03-13T11:10:39.300Z,98166.91
2023-03-13T11:15:49.912Z,98182.56
2023-03-13T11:20:52.851Z,98210.63
2023-03-13T11:26:03.209Z,98232.47
2023-03-13T11:31:11.291Z,98277.66
2023-03-13T11:36:22.461Z,98311.13
2023-03-13T11:41:33.316Z,98362.50
2023-03-13T11:46:46.846Z,98393.34
2023-03-13T11:52:06.953Z,98416.00
2023-03-13T11:57:14.538Z,98429.25
2023-03-13T12:02:22.615Z,98444.00
2023-03-13T12:07:29.512Z,98481.34
2023-03-13T12:12:40.890Z,98532.25
2023-03-13T12:17:48.018Z,98541.34
2023-03-13T12:22:55.064Z,98516.59
2023-03-13T12:28:04.365Z,98516.53
2023-03-13T12:33:16.861Z,98502.91
2023-03-13T12:38:23.450Z,98509.94
2023-03-13T12:43:30.949Z,98511.13
2023-03-13T12:48:46.198Z,98517.72
2023-03-13T12:54:27.306Z,98508.22
2023-03-13T12:59:33.916Z,98509.47
2023-03-13T13:04:43.774Z,98516.13
2023-03-13T13:10:02.447Z,98511.03
2023-03-13T13:15:20.607Z,98478.16
2023-03-13T13:20:41.309Z,98493.28
2023-03-13T13:25:44.060Z,98478.69
2023-03-13T13:30:48.315Z,98474.28
2023-03-13T13:36:34.927Z,98472.47
2023-03-13T13:41:38.779Z,98472.31
2023-03-13T13:46:47.026Z,98438.19
2023-03-13T13:52:30.984Z,98462.44
2023-03-13T13:57:37.142Z,98430.34
2023-03-13T14:02:49.682Z,98418.03
2023-03-13T14:07:59.113Z,98388.72
2023-03-13T14:13:02.953Z,98397.31
2023-03-13T14:18:21.422Z,98407.72
2023-03-13T14:23:34.475Z,98421.25
2023-03-13T14:28:40.079Z,98405.28
2023-03-13T14:33:44.114Z,98404.44
2023-03-13T14:38:55.607Z,98398.28
2023-03-13T14:44:05.386Z,98400.94
2023-03-13T14:49:16.939Z,98388.69
2023-03-13T14:54:28.642Z,98371.06
2023-03-13T14:59:31.576Z,98360.34
2023-03-13T15:04:59.481Z,98354.19
2023-03-13T15:10:02.200Z,98338.16
2023-03-13T15:15:05.310Z,98341.91
2023-03-13T15:20:11.912Z,98338.44
2023-03-13T15:25:17.276Z,98329.72
2023-03-13T15:30:23.285Z,98314.69
2023-03-13T15:35:29.302Z,98267.03
2023-03-13T15:40:32.047Z,98288.25
2023-03-13T15:45:35.003Z,98268.94
2023-03-13T15:50:39.077Z,98248.91
2023-03-13T15:55:42.001Z,98242.84
2023-03-13T16:00:45.594Z,98212.03
2023-03-13T16:05:49.953Z,98200.59
2023-03-13T16:10:52.757Z,98176.81
2023-03-13T16:15:55.506Z,98148.53
2023-03-13T16:20:59.571Z,98128.38
2023-03-13T16:26:02.269Z,98123.84
2023-03-13T16:31:05.676Z,98121.22
2023-03-13T16:36:15.494Z,98116.88
2023-03-13T16:41:19.717Z,98127.44
2023-03-13T16:46:23.896Z,98138.88
2023-03-13T16:51:29.067Z,98148.75
2023-03-13T16:56:34.523Z,98166.50
2023-03-13T17:01:37.334Z,98164.88
2023-03-13T17:06:44.495Z,98169.44
2023-03-13T17:11:48.350Z,98166.09
2023-03-13T17:16:51.081Z,98150.34
2023-03-13T17:21:55.378Z,98128.38
2023-03-13T17:26:58.092Z,98131.09
2023-03-13T17:32:04.081Z,98128.53
2023-03-13T17:37:15.169Z,98120.63
2023-03-13T17:42:18.037Z,98108.38
2023-03-13T17:47:24.578Z,98112.78
2023-03-13T17:52:28.896Z,98127.81
2023-03-13T17:57:31.662Z,98117.22
2023-03-13T18:02:34.404Z,98117.28
2023-03-13T18:07:43.690Z,98110.28
2023-03-13T18:12:46.577Z,98080.31
2023-03-13T18:17:49.860Z,98072.44
2023-03-13T18:22:54.057Z,98061.91
2023-03-13T18:27:56.898Z,98050.50
2023-03-13T18:32:59.725Z,98032.94
2023-03-13T18:38:03.838Z,98019.75
2023-03-13T18:43:06.573Z,98003.97
2023-03-13T18:48:11.305Z,98004.91
2023-03-13T18:53:15.423Z,97992.63
2023-03-13T18:58:18.291Z,97989.13
2023-03-13T19:03:21.683Z,97997.94
2023-03-13T19:08:26.014Z,97997.09
2023-03-13T19:13:34.684Z,98001.50
2023-03-13T19:18:37.442Z,97990.94
2023-03-13T19:23:41.550Z,98004.13
2023-03-13T19:28:44.502Z,98012.94
2023-03-13T19:33:47.479Z,97995.34
2023-03-13T19:38:51.926Z,97971.56
2023-03-13T19:43:54.639Z,97974.25
2023-03-13T19:48:59.187Z,97964.56
2023-03-13T19:54:03.234Z,97955.78
2023-03-13T19:59:07.173Z,97962.78
2023-03-13T20:04:09.961Z,97952.25
2023-03-13T20:09:16.470Z,97958.41
2023-03-13T20:14:19.288Z,97941.72
2023-03-13T20:19:23.933Z,97937.34
2023-03-13T20:24:28.020Z,97940.00
2023-03-13T20:29:30.759Z,97948.81
2023-03-13T20:34:33.526Z,97948.81
2023-03-13T20:39:38.295Z,97964.59
2023-03-13T20:44:41.223Z,97969.91
2023-03-13T20:49:43.999Z,97969.91
2023-03-13T20:54:48.094Z,97946.19
2023-03-13T20:59:50.853Z,97948.81
2023-03-13T21:04:53.607Z,97930.38
2023-03-13T21:09:57.687Z,97919.81
2023-03-13T21:15:00.418Z,97899.66
2023-03-13T21:20:07.579Z,97897.84
2023-03-13T21:25:12.619Z,97886.44
2023-03-13T21:30:17.999Z,97876.78
2023-03-13T21:35:20.771Z,97867.13
2023-03-13T21:40:24.863Z,97851.34
2023-03-13T21:45:27.590Z,97843.41
2023-03-13T21:50:30.928Z,97834.66
2023-03-13T21:55:38.177Z,97823.25
2023-03-13T22:00:40.935Z,97784.63
2023-03-13T22:05:44.088Z,97766.19
2023-03-13T22:10:50.182Z,97756.56
2023-03-13T22:15:52.943Z,97782.84
2023-03-13T22:20:57.771Z,97792.50
2023-03-13T22:26:01.822Z,97783.75
2023-03-13T22:31:05.843Z,97784.59
2023-03-13T22:36:10.263Z,97792.47
2023-03-13T22:41:14.724Z,97788.97
2023-03-13T22:46:17.423Z,97785.50
2023-03-13T22:51:20.187Z,97781.06
2023-03-13T22:56:26.515Z,97783.72
2023-03-13T23:01:30.684Z,97792.53
2023-03-13T23:06:33.474Z,97803.06
2023-03-13T23:11:37.619Z,97792.50
2023-03-13T23:16:40.341Z,97784.63
2023-03-13T23:21:43.062Z,97793.38
2023-03-13T23:26:47.141Z,97774.09
2023-03-13T23:31:49.890Z,97754.78
2023-03-13T23:36:52.632Z,97765.31
2023-03-13T23:41:56.711Z,97755.66
2023-03-13T23:46:59.371Z,97738.06
2023-03-13T23:52:02.014Z,97622.28
2023-03-13T23:57:06.227Z,97637.19
